Time,TemperatureF,DewpointF,PressureIn,WindDirection,WindDirectionDegrees,WindSpeedMPH,WindSpeedGustMPH,Humidity,HourlyPrecipIn,Conditions,Clouds,dailyrainin,SoftwareType,DateUTC
2013-01-07 00:02:00,35.2,25.7,29.99,WSW,247,0.0,0.0,68,0.00,,,0.00,WUHU21623XXSP,2013-01-07 06:02:00,
2013-01-07 00:07:00,35.2,25.7,29.99,WSW,247,0.0,0.0,68,0.00,,,0.00,WUHU21623XXSP,2013-01-07 06:07:00,
2013-01-07 00:12:00,34.9,25.3,29.99,West,270,0.0,1.6,68,0.00,,,0.00,WUHU21623XXSP,2013-01-07 06:12:00,
2013-01-07 00:17:00,34.9,25.7,29.99,WNW,292,0.0,1.6,69,0.00,,,0.00,WUHU21623XXSP,2013-01-07 06:17:00,
2013-01-07 00:22:00,34.7,25.5,29.98,West,270,0.0,0.0,69,0.00,,,0.00,WUHU21623XXSP,2013-01-07 06:22:00,
2013-01-07 00:27:00,34.5,25.3,29.98,West,270,0.0,0.0,69,0.00,,,0.00,WUHU21623XXSP,2013-01-07 06:27:00,
2013-01-07 00:32:00,34.5,25.3,29.98,West,270,0.0,0.0,69,0.00,,,0.00,WUHU21623XXSP,2013-01-07 06:32:00,
2013-01-07 00:37:00,34.3,25.2,29.99,SW,225,2.2,2.2,69,0.00,,,0.00,WUHU21623XXSP,2013-01-07 06:37:00,
2013-01-07 00:42:00,34.3,25.2,29.99,WSW,247,0.0,2.5,69,0.00,,,0.00,WUHU21623XXSP,2013-01-07 06:42:00,
2013-01-07 00:47:00,34.2,25.0,29.98,WSW,247,0.0,2.5,69,0.00,,,0.00,WUHU21623XXSP,2013-01-07 06:47:00,
2013-01-07 00:52:00,34.0,24.8,29.99,WSW,247,0.0,2.2,69,0.00,,,0.00,WUHU21623XXSP,2013-01-07 06:52:00,
2013-01-07 00:57:00,33.8,24.8,29.98,WSW,247,0.0,2.2,69,0.00,,,0.00,WUHU21623XXSP,2013-01-07 06:57:00,
2013-01-07 01:02:00,33.8,24.6,29.98,WSW,247,0.0,0.0,69,0.00,,,0.00,WUHU21623XXSP,2013-01-07 07:02:00,
2013-01-07 01:07:00,33.8,25.0,29.98,SW,225,0.0,0.0,70,0.00,,,0.00,WUHU21623XXSP,2013-01-07 07:07:00,
2013-01-07 01:12:00,33.6,24.8,29.98,West,270,0.0,0.0,70,0.00,,,0.00,WUHU21623XXSP,2013-01-07 07:12:00,
2013-01-07 01:17:00,33.6,24.8,29.98,WSW,247,0.0,0.0,70,0.00,,,0.00,WUHU21623XXSP,2013-01-07 07:17:00,
2013-01-07 01:22:00,33.6,24.8,29.98,WSW,247,1.6,1.6,70,0.00,,,0.00,WUHU21623XXSP,2013-01-07 07:22:00,
2013-01-07 01:27:00,33.4,24.8,29.97,WSW,247,0.0,1.6,70,0.00,,,0.00,WUHU21623XXSP,2013-01-07 07:27:00,
2013-01-07 01:32:00,33.4,24.7,29.97,West,270,0.0,0.0,70,0.00,,,0.00,WUHU21623XXSP,2013-01-07 07:32:00,
2013-01-07 01:37:00,33.4,24.7,29.97,SW,225,1.6,1.6,70,0.00,,,0.00,WUHU21623XXSP,2013-01-07 07:37:00,
2013-01-07 01:42:00,33.3,24.5,29.97,WSW,247,0.0,1.6,70,0.00,,,0.00,WUHU21623XXSP,2013-01-07 07:42:00,
2013-01-07 01:47:00,33.3,24.5,29.97,WSW,247,0.0,0.0,70,0.00,,,0.00,WUHU21623XXSP,2013-01-07 07:47:00,
2013-01-07 01:52:00,33.1,24.3,29.97,WSW,247,0.0,0.0,70,0.00,,,0.00,WUHU21623XXSP,2013-01-07 07:52:00,
2013-01-07 01:57:00,33.1,24.5,29.97,West,270,0.0,0.0,70,0.00,,,0.00,WUHU21623XXSP,2013-01-07 07:57:00,
2013-01-07 02:02:00,33.1,24.3,29.97,West,270,0.0,0.0,70,0.00,,,0.00,WUHU21623XXSP,2013-01-07 08:02:00,
2013-01-07 02:07:00,32.9,24.5,29.96,WSW,247,0.0,0.0,71,0.00,,,0.00,WUHU21623XXSP,2013-01-07 08:07:00,
2013-01-07 02:12:00,32.7,24.0,29.97,WSW,247,0.0,0.0,70,0.00,,,0.00,WUHU21623XXSP,2013-01-07 08:12:00,
2013-01-07 02:17:00,32.7,24.3,29.97,WSW,247,0.0,0.0,71,0.00,,,0.00,WUHU21623XXSP,2013-01-07 08:17:00,
2013-01-07 02:22:00,32.7,24.3,29.97,WSW,247,0.0,0.0,71,0.00,,,0.00,WUHU21623XXSP,2013-01-07 08:22:00,
2013-01-07 02:27:00,32.5,24.2,29.97,West,270,0.0,0.0,71,0.00,,,0.00,WUHU21623XXSP,2013-01-07 08:27:00,
2013-01-07 02:33:00,32.5,24.2,29.97,West,270,0.0,0.0,71,0.00,,,0.00,WUHU21623XXSP,2013-01-07 08:33:00,
2013-01-07 02:38:00,32.5,24.2,29.97,West,270,0.0,0.0,71,0.00,,,0.00,WUHU21623XXSP,2013-01-07 08:38:00,
2013-01-07 02:43:00,32.4,24.0,29.97,West,270,0.0,0.0,71,0.00,,,0.00,WUHU21623XXSP,2013-01-07 08:43:00,
2013-01-07 02:48:00,32.2,23.8,29.98,West,270,0.0,0.0,71,0.00,,,0.00,WUHU21623XXSP,2013-01-07 08:48:00,
2013-01-07 02:53:00,32.2,23.8,29.97,West,270,0.0,0.0,71,0.00,,,0.00,WUHU21623XXSP,2013-01-07 08:53:00,
2013-01-07 02:58:00,32.2,23.8,29.97,West,270,0.0,0.0,71,0.00,,,0.00,WUHU21623XXSP,2013-01-07 08:58:00,
2013-01-07 03:03:00,32.0,23.7,29.97,West,270,0.0,0.0,71,0.00,,,0.00,WUHU21623XXSP,2013-01-07 09:03:00,
2013-01-07 03:08:00,31.8,23.5,29.97,West,270,0.0,0.0,71,0.00,,,0.00,WUHU21623XXSP,2013-01-07 09:08:00,
2013-01-07 03:13:00,31.8,23.5,29.97,West,270,0.0,0.0,71,0.00,,,0.00,WUHU21623XXSP,2013-01-07 09:13:00,
2013-01-07 03:18:00,31.8,23.5,29.98,WSW,247,0.0,0.0,71,0.00,,,0.00,WUHU21623XXSP,2013-01-07 09:18:00,
2013-01-07 03:23:00,31.6,23.6,29.98,WSW,247,0.0,0.0,72,0.00,,,0.00,WUHU21623XXSP,2013-01-07 09:23:00,
2013-01-07 03:28:00,31.6,23.6,29.98,WSW,247,0.0,0.0,72,0.00,,,0.00,WUHU21623XXSP,2013-01-07 09:28:00,
2013-01-07 03:33:00,31.6,23.6,29.98,WSW,247,0.0,0.0,72,0.00,,,0.00,WUHU21623XXSP,2013-01-07 09:33:00,
2013-01-07 03:38:00,31.6,23.6,29.98,WSW,247,0.0,0.0,72,0.00,,,0.00,WUHU21623XXSP,2013-01-07 09:38:00,
2013-01-07 03:43:00,31.6,23.6,29.98,West,270,0.0,0.0,72,0.00,,,0.00,WUHU21623XXSP,2013-01-07 09:43:00,
2013-01-07 03:48:00,31.6,23.6,29.98,West,270,0.0,0.0,72,0.00,,,0.00,WUHU21623XXSP,2013-01-07 09:48:00,
2013-01-07 03:53:00,31.6,23.6,29.98,West,270,0.0,0.0,72,0.00,,,0.00,WUHU21623XXSP,2013-01-07 09:53:00,
2013-01-07 03:58:00,31.6,23.6,29.97,WNW,292,0.0,0.0,72,0.00,,,0.00,WUHU21623XXSP,2013-01-07 09:58:00,
2013-01-07 04:03:00,31.3,23.3,29.97,WNW,292,0.0,0.0,72,0.00,,,0.00,WUHU21623XXSP,2013-01-07 10:03:00,
2013-01-07 04:08:00,31.3,23.3,29.96,West,270,0.0,0.0,72,0.00,,,0.00,WUHU21623XXSP,2013-01-07 10:08:00,
2013-01-07 04:13:00,31.3,23.3,29.96,West,270,0.0,0.0,72,0.00,,,0.00,WUHU21623XXSP,2013-01-07 10:13:00,
2013-01-07 04:18:00,31.3,23.3,29.96,WSW,247,0.0,0.0,72,0.00,,,0.00,WUHU21623XXSP,2013-01-07 10:18:00,
2013-01-07 04:23:00,31.1,22.8,29.96,WSW,247,0.0,0.0,71,0.00,,,0.00,WUHU21623XXSP,2013-01-07 10:23:00,
2013-01-07 04:28:00,30.9,22.9,29.95,West,270,0.0,0.0,72,0.00,,,0.00,WUHU21623XXSP,2013-01-07 10:28:00,
2013-01-07 04:33:00,30.9,22.9,29.95,WSW,247,0.0,0.0,72,0.00,,,0.00,WUHU21623XXSP,2013-01-07 10:33:00,
2013-01-07 04:38:00,30.9,22.9,29.95,WSW,247,0.0,0.0,72,0.00,,,0.00,WUHU21623XXSP,2013-01-07 10:38:00,
2013-01-07 04:43:00,30.9,22.9,29.95,West,270,0.0,0.0,72,0.00,,,0.00,WUHU21623XXSP,2013-01-07 10:43:00,
2013-01-07 04:48:00,30.9,22.9,29.95,West,270,0.0,0.0,72,0.00,,,0.00,WUHU21623XXSP,2013-01-07 10:48:00,
2013-01-07 04:53:00,30.9,23.3,29.96,WSW,247,0.0,0.0,73,0.00,,,0.00,WUHU21623XXSP,2013-01-07 10:53:00,
2013-01-07 04:58:00,30.9,23.3,29.96,West,270,0.0,0.0,73,0.00,,,0.00,WUHU21623XXSP,2013-01-07 10:58:00,
2013-01-07 05:03:00,30.9,23.3,29.95,West,270,0.0,0.0,73,0.00,,,0.00,WUHU21623XXSP,2013-01-07 11:03:00,
2013-01-07 05:08:00,31.1,23.3,29.96,West,270,0.0,0.0,73,0.00,,,0.00,WUHU21623XXSP,2013-01-07 11:08:00,
2013-01-07 05:13:00,31.1,23.4,29.96,WSW,247,0.0,0.0,73,0.00,,,0.00,WUHU21623XXSP,2013-01-07 11:13:00,
2013-01-07 05:18:00,31.1,23.4,29.96,West,270,0.0,0.0,73,0.00,,,0.00,WUHU21623XXSP,2013-01-07 11:18:00,
2013-01-07 05:23:00,31.3,23.4,29.95,West,270,0.0,0.0,73,0.00,,,0.00,WUHU21623XXSP,2013-01-07 11:23:00,
2013-01-07 05:28:00,31.3,23.6,29.95,West,270,0.0,0.0,73,0.00,,,0.00,WUHU21623XXSP,2013-01-07 11:28:00,
2013-01-07 05:33:00,31.3,23.6,29.95,West,270,0.0,0.0,73,0.00,,,0.00,WUHU21623XXSP,2013-01-07 11:33:00,
2013-01-07 05:38:00,31.3,23.6,29.94,WSW,247,0.0,0.0,73,0.00,,,0.00,WUHU21623XXSP,2013-01-07 11:38:00,
2013-01-07 05:43:00,31.3,23.6,29.95,WSW,247,1.1,1.1,73,0.00,,,0.00,WUHU21623XXSP,2013-01-07 11:43:00,
2013-01-07 05:48:00,31.3,23.6,29.95,WSW,247,0.0,1.1,73,0.00,,,0.00,WUHU21623XXSP,2013-01-07 11:48:00,
2013-01-07 05:53:00,31.3,23.6,29.95,West,270,0.0,0.0,73,0.00,,,0.00,WUHU21623XXSP,2013-01-07 11:53:00,
2013-01-07 05:58:00,31.3,23.6,29.95,WSW,247,0.0,0.0,73,0.00,,,0.00,WUHU21623XXSP,2013-01-07 11:58:00,
2013-01-07 06:03:00,31.3,23.6,29.95,West,270,0.0,0.0,73,0.00,,,0.00,WUHU21623XXSP,2013-01-07 12:03:00,
2013-01-07 06:08:00,31.3,23.9,29.95,WNW,292,0.0,0.0,74,0.00,,,0.00,WUHU21623XXSP,2013-01-07 12:08:00,
2013-01-07 06:13:00,31.3,23.9,29.94,WNW,292,0.0,0.0,74,0.00,,,0.00,WUHU21623XXSP,2013-01-07 12:13:00,
2013-01-07 06:18:00,31.1,23.8,29.95,West,270,0.0,0.0,74,0.00,,,0.00,WUHU21623XXSP,2013-01-07 12:18:00,
2013-01-07 06:23:00,31.1,23.8,29.94,West,270,0.0,0.0,74,0.00,,,0.00,WUHU21623XXSP,2013-01-07 12:23:00,
2013-01-07 06:28:00,30.9,23.6,29.95,WSW,247,0.0,0.0,74,0.00,,,0.00,WUHU21623XXSP,2013-01-07 12:28:00,
2013-01-07 06:33:00,30.7,23.4,29.95,West,270,0.0,0.0,74,0.00,,,0.00,WUHU21623XXSP,2013-01-07 12:33:00,
2013-01-07 06:38:00,30.7,23.4,29.95,WSW,247,0.0,0.0,74,0.00,,,0.00,WUHU21623XXSP,2013-01-07 12:38:00,
2013-01-07 06:43:00,30.7,23.4,29.95,WNW,292,0.0,0.0,74,0.00,,,0.00,WUHU21623XXSP,2013-01-07 12:43:00,
2013-01-07 06:48:00,30.7,23.4,29.94,West,270,0.0,0.0,74,0.00,,,0.00,WUHU21623XXSP,2013-01-07 12:48:00,
2013-01-07 06:53:00,30.6,23.2,29.94,West,270,0.0,0.0,74,0.00,,,0.00,WUHU21623XXSP,2013-01-07 12:53:00,
2013-01-07 06:58:00,30.4,23.0,29.94,WSW,247,2.0,2.0,74,0.00,,,0.00,WUHU21623XXSP,2013-01-07 12:58:00,
2013-01-07 07:03:00,30.4,23.0,29.94,WSW,247,0.0,2.0,74,0.00,,,0.00,WUHU21623XXSP,2013-01-07 13:03:00,
2013-01-07 07:08:00,30.2,22.9,29.94,WSW,247,1.1,1.6,74,0.00,,,0.00,WUHU21623XXSP,2013-01-07 13:08:00,
2013-01-07 07:13:00,30.2,22.9,29.94,WSW,247,0.0,1.6,74,0.00,,,0.00,WUHU21623XXSP,2013-01-07 13:13:00,
2013-01-07 07:18:00,30.0,22.7,29.94,WSW,247,0.0,0.0,74,0.00,,,0.00,WUHU21623XXSP,2013-01-07 13:18:00,
2013-01-07 07:23:00,30.0,22.7,29.95,WSW,247,0.0,0.0,74,0.00,,,0.00,WUHU21623XXSP,2013-01-07 13:23:00,
2013-01-07 07:28:00,30.0,22.7,29.94,WSW,247,0.0,0.0,74,0.00,,,0.00,WUHU21623XXSP,2013-01-07 13:28:00,
2013-01-07 07:33:00,30.0,22.7,29.95,WSW,247,1.6,1.6,74,0.00,,,0.00,WUHU21623XXSP,2013-01-07 13:33:00,
2013-01-07 07:38:00,30.0,22.7,29.95,WSW,247,0.0,1.6,74,0.00,,,0.00,WUHU21623XXSP,2013-01-07 13:38:00,
2013-01-07 07:43:00,30.0,22.7,29.95,WSW,247,0.0,0.0,74,0.00,,,0.00,WUHU21623XXSP,2013-01-07 13:43:00,
2013-01-07 07:48:00,30.0,22.7,29.95,WSW,247,0.0,0.0,74,0.00,,,0.00,WUHU21623XXSP,2013-01-07 13:48:00,
2013-01-07 07:54:00,30.0,22.7,29.95,WNW,292,0.0,0.0,74,0.00,,,0.00,WUHU21623XXSP,2013-01-07 13:54:00,
2013-01-07 07:59:00,30.2,23.2,29.95,WNW,292,0.0,0.0,75,0.00,,,0.00,WUHU21623XXSP,2013-01-07 13:59:00,
2013-01-07 08:04:00,30.6,23.4,29.95,WNW,292,0.0,0.0,75,0.00,,,0.00,WUHU21623XXSP,2013-01-07 14:04:00,
2013-01-07 08:09:00,30.7,23.5,29.95,SW,225,0.0,0.0,75,0.00,,,0.00,WUHU21623XXSP,2013-01-07 14:09:00,
2013-01-07 08:14:00,30.7,23.7,29.94,West,270,0.0,0.0,75,0.00,,,0.00,WUHU21623XXSP,2013-01-07 14:14:00,
2013-01-07 08:19:00,31.1,24.1,29.95,West,270,0.0,0.0,75,0.00,,,0.00,WUHU21623XXSP,2013-01-07 14:19:00,
2013-01-07 08:24:00,31.3,24.6,29.96,WSW,247,0.0,0.0,76,0.00,,,0.00,WUHU21623XXSP,2013-01-07 14:24:00,
2013-01-07 08:29:00,31.6,24.9,29.95,West,270,0.0,0.0,76,0.00,,,0.00,WUHU21623XXSP,2013-01-07 14:29:00,
2013-01-07 08:34:00,31.8,25.1,29.95,West,270,0.0,0.0,76,0.00,,,0.00,WUHU21623XXSP,2013-01-07 14:34:00,
2013-01-07 08:39:00,32.2,25.5,29.96,WSW,247,0.0,0.0,76,0.00,,,0.00,WUHU21623XXSP,2013-01-07 14:39:00,
2013-01-07 08:44:00,32.2,25.8,29.96,SW,225,0.0,0.0,77,0.00,,,0.00,WUHU21623XXSP,2013-01-07 14:44:00,
2013-01-07 08:49:00,32.7,26.3,29.96,SW,225,0.0,0.0,77,0.00,,,0.00,WUHU21623XXSP,2013-01-07 14:49:00,
2013-01-07 08:54:00,33.1,26.6,29.96,WSW,247,0.0,0.0,77,0.00,,,0.00,WUHU21623XXSP,2013-01-07 14:54:00,
2013-01-07 08:59:00,33.4,26.9,29.97,WSW,247,0.0,0.0,77,0.00,,,0.00,WUHU21623XXSP,2013-01-07 14:59:00,
2013-01-07 09:04:00,33.6,27.1,29.96,WSW,247,0.0,0.0,77,0.00,,,0.00,WUHU21623XXSP,2013-01-07 15:04:00,
2013-01-07 09:09:00,33.6,27.4,29.96,WSW,247,0.0,0.0,78,0.00,,,0.00,WUHU21623XXSP,2013-01-07 15:09:00,
2013-01-07 09:14:00,34.0,27.8,29.97,SW,225,0.0,0.0,78,0.00,,,0.00,WUHU21623XXSP,2013-01-07 15:14:00,
2013-01-07 09:19:00,34.3,28.1,29.97,SW,225,0.0,0.0,78,0.00,,,0.00,WUHU21623XXSP,2013-01-07 15:19:00,
2013-01-07 09:24:00,34.5,28.3,29.97,WSW,247,0.0,0.0,78,0.00,,,0.00,WUHU21623XXSP,2013-01-07 15:24:00,
2013-01-07 09:27:00,34.9,28.7,29.97,West,270,0.0,0.0,78,0.00,,,0.00,WUHU21623XXSP,2013-01-07 15:27:00,
2013-01-07 09:33:00,35.8,29.6,29.97,ENE,67,0.0,0.0,78,0.00,,,0.00,WUHU21623XXSP,2013-01-07 15:33:00,
2013-01-07 09:40:00,36.3,30.1,29.98,ENE,67,0.0,0.0,78,0.00,,,0.00,WUHU21623XXSP,2013-01-07 15:40:00,
2013-01-07 09:52:00,37.9,31.0,29.97,ESE,112,0.0,0.0,76,0.00,,,0.00,WUHU21623XXSP,2013-01-07 15:52:00,
2013-01-07 10:01:00,38.8,31.9,29.97,ESE,112,3.1,3.1,76,0.00,,,0.00,WUHU21623XXSP,2013-01-07 16:01:00,
2013-01-07 10:07:00,39.7,32.4,29.98,East,90,4.3,4.9,76,0.00,,,0.00,WUHU21623XXSP,2013-01-07 16:07:00,
2013-01-07 10:14:00,40.5,33.4,29.98,SE,135,5.4,5.4,76,0.00,,,0.00,WUHU21623XXSP,2013-01-07 16:14:00,
2013-01-07 10:20:00,41.4,34.3,29.97,SE,135,3.4,5.4,76,0.00,,,0.00,WUHU21623XXSP,2013-01-07 16:20:00,
2013-01-07 10:39:00,42.6,35.2,29.97,ESE,112,2.7,3.1,75,0.00,,,0.00,WUHU21623XXSP,2013-01-07 16:39:00,
2013-01-07 10:46:00,43.2,35.4,29.96,SE,135,2.7,4.7,74,0.00,,,0.00,WUHU21623XXSP,2013-01-07 16:46:00,
2013-01-07 10:52:00,43.5,35.8,29.96,SE,135,4.5,4.5,74,0.00,,,0.00,WUHU21623XXSP,2013-01-07 16:52:00,
2013-01-07 10:59:00,44.1,36.3,29.97,East,90,4.7,4.7,74,0.00,,,0.00,WUHU21623XXSP,2013-01-07 16:59:00,
2013-01-07 11:18:00,46.0,37.5,29.95,ESE,112,4.5,8.3,72,0.00,,,0.00,WUHU21623XXSP,2013-01-07 17:18:00,
2013-01-07 11:24:00,46.2,37.7,29.94,ESE,112,7.8,10.5,72,0.00,,,0.00,WUHU21623XXSP,2013-01-07 17:24:00,
2013-01-07 11:31:00,46.8,37.9,29.94,SE,135,5.4,10.5,71,0.00,,,0.00,WUHU21623XXSP,2013-01-07 17:31:00,
2013-01-07 11:37:00,46.9,37.7,29.94,SE,135,3.4,5.4,70,0.00,,,0.00,WUHU21623XXSP,2013-01-07 17:37:00,
2013-01-07 11:44:00,47.1,37.5,29.93,East,90,6.7,6.7,69,0.00,,,0.00,WUHU21623XXSP,2013-01-07 17:44:00,
2013-01-07 11:50:00,47.7,37.2,29.92,SE,135,8.1,8.3,67,0.00,,,0.00,WUHU21623XXSP,2013-01-07 17:50:00,
2013-01-07 11:57:00,48.0,37.5,29.92,SE,135,7.6,8.3,67,0.00,,,0.00,WUHU21623XXSP,2013-01-07 17:57:00,
2013-01-07 12:03:00,48.0,37.1,29.92,SSE,157,2.7,7.6,66,0.00,,,0.00,WUHU21623XXSP,2013-01-07 18:03:00,
2013-01-07 12:09:00,48.4,37.5,29.92,East,90,4.0,4.0,66,0.00,,,0.00,WUHU21623XXSP,2013-01-07 18:09:00,
2013-01-07 12:16:00,48.7,37.3,29.91,ESE,112,5.4,5.4,65,0.00,,,0.00,WUHU21623XXSP,2013-01-07 18:16:00,
2013-01-07 12:22:00,48.7,37.5,29.90,ESE,112,3.6,5.8,65,0.00,,,0.00,WUHU21623XXSP,2013-01-07 18:22:00,
2013-01-07 12:29:00,48.9,37.2,29.91,ESE,112,4.5,7.4,64,0.00,,,0.00,WUHU21623XXSP,2013-01-07 18:29:00,
2013-01-07 12:35:00,49.3,37.6,29.90,ENE,67,6.3,6.3,64,0.00,,,0.00,WUHU21623XXSP,2013-01-07 18:35:00,
2013-01-07 12:41:00,49.6,37.9,29.89,South,180,6.3,6.3,64,0.00,,,0.00,WUHU21623XXSP,2013-01-07 18:41:00,
2013-01-07 12:48:00,49.8,37.7,29.88,East,90,7.4,7.4,63,0.00,,,0.00,WUHU21623XXSP,2013-01-07 18:48:00,
2013-01-07 12:54:00,50.2,37.6,29.87,ESE,112,8.3,8.3,62,0.00,,,0.00,WUHU21623XXSP,2013-01-07 18:54:00,
2013-01-07 13:01:00,50.2,37.6,29.86,South,180,3.8,8.3,62,0.00,,,0.00,WUHU21623XXSP,2013-01-07 19:01:00,
2013-01-07 13:07:00,50.5,38.0,29.86,South,180,4.3,4.3,62,0.00,,,0.00,WUHU21623XXSP,2013-01-07 19:07:00,
2013-01-07 13:14:00,50.7,38.1,29.86,ESE,112,6.0,8.1,62,0.00,,,0.00,WUHU21623XXSP,2013-01-07 19:14:00,
2013-01-07 13:20:00,51.1,37.7,29.85,East,90,3.4,7.6,60,0.00,,,0.00,WUHU21623XXSP,2013-01-07 19:20:00,
2013-01-07 13:26:00,51.4,38.0,29.84,ESE,112,4.5,8.1,60,0.00,,,0.00,WUHU21623XXSP,2013-01-07 19:26:00,
2013-01-07 13:33:00,51.6,36.8,29.84,ESE,112,8.3,12.1,57,0.00,,,0.00,WUHU21623XXSP,2013-01-07 19:33:00,
2013-01-07 13:39:00,51.4,36.6,29.84,ENE,67,8.1,12.1,57,0.00,,,0.00,WUHU21623XXSP,2013-01-07 19:39:00,
2013-01-07 13:46:00,51.3,36.9,29.84,ENE,67,2.9,11.9,58,0.00,,,0.00,WUHU21623XXSP,2013-01-07 19:46:00,
2013-01-07 13:52:00,51.6,37.2,29.83,ESE,112,2.9,11.9,58,0.00,,,0.00,WUHU21623XXSP,2013-01-07 19:52:00,
2013-01-07 13:59:00,52.0,37.4,29.83,ENE,67,6.9,6.9,57,0.00,,,0.00,WUHU21623XXSP,2013-01-07 19:59:00,
2013-01-07 14:05:00,51.8,37.0,29.83,ESE,112,8.5,8.5,57,0.00,,,0.00,WUHU21623XXSP,2013-01-07 20:05:00,
2013-01-07 14:11:00,51.8,37.0,29.83,SE,135,9.4,9.4,57,0.00,,,0.00,WUHU21623XXSP,2013-01-07 20:11:00,
2013-01-07 14:18:00,51.6,36.3,29.82,East,90,4.0,10.1,56,0.00,,,0.00,WUHU21623XXSP,2013-01-07 20:18:00,
2013-01-07 14:24:00,51.6,36.3,29.81,East,90,5.1,10.7,56,0.00,,,0.00,WUHU21623XXSP,2013-01-07 20:24:00,
2013-01-07 14:31:00,51.6,36.3,29.81,ESE,112,4.5,11.4,56,0.00,,,0.00,WUHU21623XXSP,2013-01-07 20:31:00,
2013-01-07 14:37:00,51.8,36.5,29.81,ENE,67,12.3,12.3,56,0.00,,,0.00,WUHU21623XXSP,2013-01-07 20:37:00,
2013-01-07 14:44:00,52.3,37.0,29.81,ENE,67,13.6,13.6,56,0.00,,,0.00,WUHU21623XXSP,2013-01-07 20:44:00,
2013-01-07 14:50:00,52.5,36.7,29.81,ESE,112,4.7,13.6,55,0.00,,,0.00,WUHU21623XXSP,2013-01-07 20:50:00,
2013-01-07 14:56:00,52.3,37.0,29.81,East,90,4.7,7.2,56,0.00,,,0.00,WUHU21623XXSP,2013-01-07 20:56:00,
2013-01-07 15:03:00,52.3,37.5,29.81,SE,135,6.9,6.9,57,0.00,,,0.00,WUHU21623XXSP,2013-01-07 21:03:00,
2013-01-07 15:09:00,52.5,37.2,29.80,ESE,112,3.6,8.7,56,0.00,,,0.00,WUHU21623XXSP,2013-01-07 21:09:00,
2013-01-07 15:16:00,52.3,36.6,29.80,NE,45,9.4,9.4,56,0.00,,,0.00,WUHU21623XXSP,2013-01-07 21:16:00,
2013-01-07 15:22:00,52.2,36.8,29.79,ESE,112,11.4,11.4,56,0.00,,,0.00,WUHU21623XXSP,2013-01-07 21:22:00,
2013-01-07 15:29:00,52.2,36.8,29.81,ESE,112,1.3,11.9,55,0.00,,,0.00,WUHU21623XXSP,2013-01-07 21:29:00,
2013-01-07 15:35:00,52.0,36.7,29.82,East,90,1.8,4.3,56,0.00,,,0.00,WUHU21623XXSP,2013-01-07 21:35:00,
2013-01-07 15:41:00,52.0,36.7,29.83,NE,45,4.5,4.5,56,0.00,,,0.00,WUHU21623XXSP,2013-01-07 21:41:00,
2013-01-07 15:48:00,52.2,36.4,29.83,ESE,112,2.5,4.7,55,0.00,,,0.00,WUHU21623XXSP,2013-01-07 21:48:00,
2013-01-07 15:54:00,52.0,35.8,29.82,East,90,8.3,8.3,54,0.00,,,0.00,WUHU21623XXSP,2013-01-07 21:54:00,
2013-01-07 16:01:00,52.0,36.2,29.82,SE,135,2.5,8.3,55,0.00,,,0.00,WUHU21623XXSP,2013-01-07 22:01:00,
2013-01-07 16:07:00,51.8,36.0,29.82,East,90,7.2,7.2,55,0.00,,,0.00,WUHU21623XXSP,2013-01-07 22:07:00,
2013-01-07 16:13:00,51.8,36.0,29.82,ESE,112,3.8,7.2,55,0.00,,,0.00,WUHU21623XXSP,2013-01-07 22:13:00,
2013-01-07 16:20:00,51.8,36.0,29.82,NE,45,0.0,4.5,55,0.00,,,0.00,WUHU21623XXSP,2013-01-07 22:20:00,
2013-01-07 16:26:00,51.6,35.9,29.82,ESE,112,4.0,4.0,55,0.00,,,0.00,WUHU21623XXSP,2013-01-07 22:26:00,
2013-01-07 16:33:00,51.6,36.3,29.82,ESE,112,1.3,4.0,56,0.00,,,0.00,WUHU21623XXSP,2013-01-07 22:33:00,
2013-01-07 16:39:00,51.6,35.9,29.81,ENE,67,6.0,6.0,55,0.00,,,0.00,WUHU21623XXSP,2013-01-07 22:39:00,
2013-01-07 16:46:00,51.4,35.9,29.81,ENE,67,6.0,6.0,55,0.00,,,0.00,WUHU21623XXSP,2013-01-07 22:46:00,
2013-01-07 16:52:00,51.4,36.2,29.80,ESE,112,4.3,6.0,56,0.00,,,0.00,WUHU21623XXSP,2013-01-07 22:52:00,
2013-01-07 16:58:00,51.3,36.0,29.80,East,90,3.4,5.6,56,0.00,,,0.00,WUHU21623XXSP,2013-01-07 22:58:00,
2013-01-07 17:05:00,51.1,35.9,29.80,ENE,67,0.9,3.4,57,0.00,,,0.00,WUHU21623XXSP,2013-01-07 23:05:00,
2013-01-07 17:11:00,51.1,36.3,29.80,East,90,2.9,4.0,57,0.00,,,0.00,WUHU21623XXSP,2013-01-07 23:11:00,
2013-01-07 17:18:00,50.9,36.6,29.81,ESE,112,3.6,4.0,58,0.00,,,0.00,WUHU21623XXSP,2013-01-07 23:18:00,
2013-01-07 17:24:00,50.7,36.4,29.81,East,90,2.5,4.7,58,0.00,,,0.00,WUHU21623XXSP,2013-01-07 23:24:00,
2013-01-07 17:31:00,50.7,36.4,29.80,East,90,4.0,8.1,58,0.00,,,0.00,WUHU21623XXSP,2013-01-07 23:31:00,
2013-01-07 17:37:00,50.5,36.3,29.81,NE,45,0.0,4.3,58,0.00,,,0.00,WUHU21623XXSP,2013-01-07 23:37:00,
2013-01-07 17:43:00,50.5,36.7,29.81,ESE,112,1.6,1.6,59,0.00,,,0.00,WUHU21623XXSP,2013-01-07 23:43:00,
2013-01-07 17:52:00,50.4,36.6,29.81,East,90,0.0,1.8,59,0.00,,,0.00,WUHU21623XXSP,2013-01-07 23:52:00,
2013-01-07 17:58:00,50.2,36.6,29.81,East,90,4.7,4.7,59,0.00,,,0.00,WUHU21623XXSP,2013-01-07 23:58:00,
2013-01-07 18:05:00,50.2,36.8,29.80,ENE,67,5.4,5.4,60,0.00,,,0.00,WUHU21623XXSP,2013-01-08 00:05:00,
2013-01-07 18:11:00,49.8,36.5,29.80,ESE,112,0.0,5.4,60,0.00,,,0.00,WUHU21623XXSP,2013-01-08 00:11:00,
2013-01-07 18:18:00,49.8,36.5,29.80,ESE,112,2.2,2.2,60,0.00,,,0.00,WUHU21623XXSP,2013-01-08 00:18:00,
2013-01-07 18:24:00,49.8,36.5,29.79,ESE,112,2.2,2.2,60,0.00,,,0.00,WUHU21623XXSP,2013-01-08 00:24:00,
2013-01-07 18:30:00,49.6,36.7,29.78,ENE,67,4.7,4.7,61,0.00,,,0.00,WUHU21623XXSP,2013-01-08 00:30:00,
2013-01-07 18:37:00,49.3,36.4,29.78,ESE,112,3.6,7.8,61,0.00,,,0.00,WUHU21623XXSP,2013-01-08 00:37:00,
2013-01-07 18:43:00,49.1,36.2,29.78,SE,135,0.0,7.8,61,0.00,,,0.00,WUHU21623XXSP,2013-01-08 00:43:00,
2013-01-07 18:50:00,48.9,36.5,29.78,SE,135,4.7,4.7,62,0.00,,,0.00,WUHU21623XXSP,2013-01-08 00:50:00,
2013-01-07 18:56:00,48.9,36.5,29.78,East,90,4.7,4.9,62,0.00,,,0.00,WUHU21623XXSP,2013-01-08 00:56:00,
2013-01-07 19:03:00,48.9,36.1,29.77,ESE,112,4.5,6.0,61,0.00,,,0.00,WUHU21623XXSP,2013-01-08 01:03:00,
2013-01-07 19:09:00,48.9,36.1,29.77,East,90,3.8,7.2,61,0.00,,,0.00,WUHU21623XXSP,2013-01-08 01:09:00,
2013-01-07 19:15:00,48.7,36.3,29.78,East,90,7.2,7.2,62,0.00,,,0.00,WUHU21623XXSP,2013-01-08 01:15:00,
2013-01-07 19:22:00,48.6,36.1,29.78,East,90,2.2,7.2,62,0.00,,,0.00,WUHU21623XXSP,2013-01-08 01:22:00,
2013-01-07 19:28:00,48.6,36.1,29.78,ESE,112,2.7,2.7,62,0.00,,,0.00,WUHU21623XXSP,2013-01-08 01:28:00,
2013-01-07 19:35:00,48.6,36.1,29.79,SE,135,0.0,3.8,62,0.00,,,0.00,WUHU21623XXSP,2013-01-08 01:35:00,
2013-01-07 19:41:00,48.6,36.1,29.79,ESE,112,2.2,2.5,62,0.00,,,0.00,WUHU21623XXSP,2013-01-08 01:41:00,
2013-01-07 19:48:00,48.7,36.3,29.80,South,180,2.5,2.5,62,0.00,,,0.00,WUHU21623XXSP,2013-01-08 01:48:00,
2013-01-07 19:54:00,48.7,36.7,29.80,SE,135,0.0,2.5,63,0.00,,,0.00,WUHU21623XXSP,2013-01-08 01:54:00,
2013-01-07 20:00:00,48.7,36.7,29.80,ESE,112,2.2,2.9,63,0.00,,,0.00,WUHU21623XXSP,2013-01-08 02:00:00,
2013-01-07 20:07:00,48.7,36.7,29.80,SE,135,2.7,2.7,63,0.00,,,0.00,WUHU21623XXSP,2013-01-08 02:07:00,
2013-01-07 20:13:00,48.7,36.7,29.80,ESE,112,0.0,2.7,63,0.00,,,0.00,WUHU21623XXSP,2013-01-08 02:13:00,
2013-01-07 20:20:00,48.7,36.7,29.80,SE,135,0.0,1.8,63,0.00,,,0.00,WUHU21623XXSP,2013-01-08 02:20:00,
2013-01-07 20:26:00,48.6,36.9,29.79,ESE,112,0.0,1.8,64,0.00,,,0.00,WUHU21623XXSP,2013-01-08 02:26:00,
2013-01-07 20:33:00,48.6,36.9,29.80,ESE,112,0.0,1.8,64,0.00,,,0.00,WUHU21623XXSP,2013-01-08 02:33:00,
2013-01-07 20:39:00,48.6,36.9,29.79,ENE,67,0.0,0.0,64,0.00,,,0.00,WUHU21623XXSP,2013-01-08 02:39:00,
2013-01-07 20:45:00,48.6,36.9,29.80,SE,135,1.1,1.1,64,0.00,,,0.00,WUHU21623XXSP,2013-01-08 02:45:00,
2013-01-07 20:52:00,48.6,36.9,29.79,SE,135,1.3,1.3,64,0.00,,,0.00,WUHU21623XXSP,2013-01-08 02:52:00,
2013-01-07 20:58:00,48.6,36.9,29.79,ESE,112,0.0,1.3,64,0.00,,,0.00,WUHU21623XXSP,2013-01-08 02:58:00,
2013-01-07 21:05:00,48.4,37.1,29.79,SE,135,0.0,2.2,65,0.00,,,0.00,WUHU21623XXSP,2013-01-08 03:05:00,
2013-01-07 21:11:00,48.4,37.1,29.79,SE,135,0.9,2.5,65,0.00,,,0.00,WUHU21623XXSP,2013-01-08 03:11:00,
2013-01-07 21:18:00,48.4,37.1,29.80,ESE,112,0.0,2.9,65,0.00,,,0.00,WUHU21623XXSP,2013-01-08 03:18:00,
2013-01-07 21:24:00,48.4,37.1,29.79,ESE,112,0.0,1.3,65,0.00,,,0.00,WUHU21623XXSP,2013-01-08 03:24:00,
2013-01-07 21:30:00,48.4,37.5,29.79,NE,45,2.0,2.0,66,0.00,,,0.00,WUHU21623XXSP,2013-01-08 03:30:00,
2013-01-07 21:37:00,48.4,37.5,29.78,East,90,1.1,2.9,66,0.00,,,0.00,WUHU21623XXSP,2013-01-08 03:37:00,
2013-01-07 21:43:00,48.2,37.3,29.78,SE,135,0.0,2.9,66,0.00,,,0.00,WUHU21623XXSP,2013-01-08 03:43:00,
2013-01-07 21:50:00,48.2,37.3,29.78,East,90,0.0,0.0,66,0.00,,,0.00,WUHU21623XXSP,2013-01-08 03:50:00,
2013-01-07 21:56:00,48.2,37.7,29.77,ENE,67,1.1,2.9,67,0.00,,,0.00,WUHU21623XXSP,2013-01-08 03:56:00,
2013-01-07 22:02:00,48.0,37.5,29.78,ESE,112,3.8,3.8,67,0.00,,,0.00,WUHU21623XXSP,2013-01-08 04:02:00,
2013-01-07 22:09:00,48.0,37.5,29.77,ESE,112,0.0,3.8,67,0.00,,,0.00,WUHU21623XXSP,2013-01-08 04:09:00,
2013-01-07 22:15:00,48.0,37.5,29.77,East,90,0.0,2.7,67,0.00,,,0.00,WUHU21623XXSP,2013-01-08 04:15:00,
2013-01-07 22:22:00,48.0,37.5,29.76,SE,135,2.2,2.7,67,0.00,,,0.00,WUHU21623XXSP,2013-01-08 04:22:00,
2013-01-07 22:28:00,48.0,37.5,29.77,East,90,1.8,2.9,67,0.00,,,0.00,WUHU21623XXSP,2013-01-08 04:28:00,
2013-01-07 22:35:00,48.0,37.5,29.76,ENE,67,2.5,2.9,67,0.00,,,0.00,WUHU21623XXSP,2013-01-08 04:35:00,
2013-01-07 22:41:00,48.0,37.5,29.76,ENE,67,3.6,3.6,67,0.00,,,0.00,WUHU21623XXSP,2013-01-08 04:41:00,
2013-01-07 22:47:00,48.0,37.9,29.76,ENE,67,3.4,3.6,68,0.00,,,0.00,WUHU21623XXSP,2013-01-08 04:47:00,
2013-01-07 22:54:00,48.0,37.9,29.76,ENE,67,5.4,5.4,68,0.00,,,0.00,WUHU21623XXSP,2013-01-08 04:54:00,
2013-01-07 23:00:00,48.0,37.9,29.75,ENE,67,4.7,5.8,68,0.00,,,0.00,WUHU21623XXSP,2013-01-08 05:00:00,
2013-01-07 23:07:00,48.0,37.9,29.75,East,90,4.3,5.8,68,0.00,,,0.00,WUHU21623XXSP,2013-01-08 05:07:00,
2013-01-07 23:13:00,48.0,37.9,29.75,ENE,67,3.4,5.8,68,0.00,,,0.00,WUHU21623XXSP,2013-01-08 05:13:00,
2013-01-07 23:20:00,47.8,38.1,29.75,ESE,112,0.0,4.3,69,0.00,,,0.00,WUHU21623XXSP,2013-01-08 05:20:00,
2013-01-07 23:26:00,48.0,38.3,29.75,ENE,67,2.9,3.8,69,0.00,,,0.00,WUHU21623XXSP,2013-01-08 05:26:00,
2013-01-07 23:32:00,48.0,38.3,29.75,ESE,112,2.7,3.4,69,0.00,,,0.00,WUHU21623XXSP,2013-01-08 05:32:00,
2013-01-07 23:39:00,48.0,38.3,29.75,ENE,67,2.9,3.8,69,0.00,,,0.00,WUHU21623XXSP,2013-01-08 05:39:00,
2013-01-07 23:45:00,48.0,38.3,29.74,East,90,2.0,2.9,69,0.00,,,0.00,WUHU21623XXSP,2013-01-08 05:45:00,
2013-01-07 23:52:00,48.0,38.3,29.74,East,90,4.3,4.3,69,0.00,,,0.00,WUHU21623XXSP,2013-01-08 05:52:00,
2013-01-07 23:58:00,48.0,38.7,29.74,ENE,67,2.7,5.4,70,0.00,,,0.00,WUHU21623XXSP,2013-01-08 05:58:00,